Terminal Aerodrome Forecast
Issued by NWS

Home | Current Version | Previous Version | Text Only | Print | Product List | Glossary On
Versions: 1 2 3 4 5 6 7 8 9 10 11 12 13 14
000
FTUS45 KRIW 292339
TAFCOD
TAF
KCOD 292339Z 3000/3024 13007KT P6SM SCT100 BKN200
     FM300300 23008G15KT P6SM VCTS SCT090CB BKN200
     FM300700 25013G21KT P6SM VCSH BKN100
     FM301500 20011KT P6SM SCT100
     FM301900 23015G25KT P6SM FEW060 BKN200
      AMD LTD TO CLD VIS AND WIND=

USA.gov is the U.S. government's official web portal to all federal, state and local government web resources and services.